Latest Weather Observations for Busselton Airport

IDW60801

Issued at 1:05 pm WST Monday 24 November 2014 (issued every 30 minutes, with the page automatically refreshed every 10 minutes)

About weather observations | Map of weather stations | Latest weather observations for WA | Other Formats
Station Details ID: 009603 Name: BUSSELTON AERO Lat: -33.69 Lon: 115.40 Height: 16.3 m
Data from the previous 72 hours. | See also: Recent months at Busselton Airport
Date/Time
WST
Temp
°C
App
Temp
°C
Dew
Point
Rel
Hum
%
Delta-T
°C
Wind Press
QNH
hPa
Press
MSL
hPa
Rain
since 9 am
mm
Dir
 
Spd
km/h
Gust
km/h
Spd
kts
Gust
kts
24/01:00pm 21.7 18.5 5.2 34 8.1 S 11 19 6 10 1021.2 1021.2 0.0
24/12:30pm 21.9 17.0 5.3 34 8.2 SE 20 28 11 15 1021.5 1021.5 0.0
24/12:00pm 21.2 18.4 5.1 35 7.9 ENE 9 17 5 9 1021.8 1021.8 0.0
24/11:30am 20.8 17.8 6.0 38 7.4 SSE 11 20 6 11 1022.2 1022.2 0.0
24/11:00am 20.0 16.6 6.0 40 6.9 E 13 24 7 13 1022.5 1022.5 0.0
24/10:30am 19.0 15.2 5.8 42 6.5 SE 15 24 8 13 1022.8 1022.8 0.0
24/10:00am 18.9 15.0 5.4 41 6.6 SSE 15 28 8 15 1023.2 1023.2 0.0
24/09:30am 17.7 13.4 5.3 44 6.0 E 17 24 9 13 1023.5 1023.4 0.0
24/09:00am 17.1 12.8 5.4 46 5.6 SE 17 24 9 13 1023.7 1023.6 0.0
24/08:30am 16.8 11.9 5.1 46 5.6 SE 20 32 11 17 1024.0 1023.9 0.0
24/08:00am 16.0 10.7 5.0 48 5.2 SE 22 28 12 15 1024.3 1024.2 0.0
24/07:30am 15.1 11.7 6.1 55 4.3 SE 13 19 7 10 1024.3 1024.2 0.0
24/07:00am 12.7 10.6 6.7 67 2.9 SE 7 9 4 5 1024.0 1023.9 0.0
24/06:30am 9.4 7.3 5.9 79 1.6 S 6 7 3 4 1023.8 1023.7 0.0
24/06:00am 6.2 3.7 5.0 92 0.5 SSW 7 7 4 4 1023.7 1023.6 0.0
24/05:30am 4.4 1.7 2.9 90 0.6 SSW 6 7 3 4 1023.6 1023.5 0.0
24/05:00am 3.9 1.1 2.3 89 0.6 S 6 7 3 4 1023.2 1023.2 0.0
24/04:30am 4.2 1.3 2.6 89 0.6 SSW 7 9 4 5 1022.9 1022.9 0.0
24/04:00am 4.1 1.3 2.1 87 0.8 S 6 7 3 4 1022.7 1022.7 0.0
24/03:30am 4.8 2.0 3.0 88 0.7 SSW 7 9 4 5 1022.6 1022.6 0.0
24/03:00am 4.6 1.3 2.6 87 0.8 S 9 11 5 6 1022.5 1022.5 0.0
24/02:30am 4.9 1.3 3.2 89 0.7 SSW 11 13 6 7 1022.5 1022.5 0.0
24/02:00am 4.6 1.8 2.9 89 0.7 SSW 7 9 4 5 1022.4 1022.4 0.0
24/01:30am 4.4 1.0 2.1 85 0.9 SW 9 13 5 7 1022.5 1022.5 0.0
24/01:00am 5.5 2.9 3.2 85 0.9 SSW 6 9 3 5 1022.4 1022.4 0.0
24/12:30am 5.7 3.2 3.7 87 0.8 SE 6 7 3 4 1022.4 1022.4 0.0
24/12:00am 5.2 2.3 2.4 82 1.1 SSW 7 7 4 4 1022.6 1022.6 0.0
 
Date/Time
WST
Temp
°C
App
Temp
°C
Dew
Point
Rel
Hum
%
Delta-T
°C
Wind Press
QNH
hPa
Press
MSL
hPa
Rain
since 9 am
mm
Dir
 
Spd
km/h
Gust
km/h
Spd
kts
Gust
kts
23/11:30pm 7.9 5.5 4.5 79 1.5 SSW 6 7 3 4 1022.6 1022.6 0.0
23/11:00pm 7.4 4.8 4.4 81 1.3 S 7 9 4 5 1022.5 1022.5 0.0
23/10:30pm 8.5 5.5 4.3 75 1.8 S 9 11 5 6 1022.5 1022.5 0.0
23/10:00pm 9.2 6.3 4.6 73 2.0 S 9 11 5 6 1022.4 1022.4 0.0
23/09:30pm 10.3 7.9 5.3 71 2.3 SSE 7 9 4 5 1022.2 1022.2 0.0
23/09:00pm 10.8 7.6 5.1 68 2.6 SSE 11 13 6 7 1022.1 1022.1 0.0
23/08:30pm 12.0 8.1 5.4 64 3.1 S 15 19 8 10 1021.7 1021.7 0.0
23/08:00pm 12.2 8.8 5.8 65 3.0 S 13 17 7 9 1021.3 1021.3 0.0
23/07:30pm 13.0 9.2 5.7 61 3.4 S 15 20 8 11 1020.9 1020.9 0.0
23/07:00pm 14.4 9.6 5.5 55 4.2 S 20 26 11 14 1020.6 1020.6 0.0
23/06:30pm 15.7 10.1 5.3 50 4.9 S 24 30 13 16 1020.0 1020.0 0.0
23/06:00pm 16.0 10.4 5.3 49 5.1 SSW 24 30 13 16 1019.6 1019.6 0.0
23/05:30pm 17.7 12.5 5.6 45 5.9 S 22 33 12 18 1019.0 1019.0 0.0
23/05:00pm 19.1 13.3 6.2 43 6.4 SSW 26 33 14 18 1018.8 1018.8 0.0
23/04:30pm 19.3 13.2 5.0 39 6.9 S 26 33 14 18 1018.6 1018.6 0.0
23/04:00pm 19.2 13.2 7.0 45 6.1 S 28 39 15 21 1018.2 1018.2 0.0
23/03:34pm 20.4 14.3 6.7 41 6.9 SSW 28 46 15 25 1018.1 1018.1 0.0
23/03:30pm 20.8 15.1 6.7 40 7.1 SSW 26 46 14 25 1017.9 1017.9 0.0
23/03:00pm 19.3 13.2 6.8 44 6.3 SSW 28 35 15 19 1018.0 1018.0 0.0
23/02:30pm 19.7 14.0 5.0 38 7.2 SW 24 33 13 18 1017.9 1017.9 0.0
23/02:00pm 19.6 15.7 5.3 39 7.0 SW 15 28 8 15 1017.7 1017.7 0.0
23/01:30pm 19.3 14.5 5.7 41 6.7 SSW 20 32 11 17 1017.7 1017.7 0.0
23/01:00pm 19.1 15.3 5.9 42 6.5 SSW 15 22 8 12 1017.7 1017.7 0.0
23/12:30pm 19.8 14.4 6.2 41 6.8 SSW 24 35 13 19 1018.0 1018.0 0.0
23/12:00pm 19.1 12.9 6.2 43 6.4 SW 28 35 15 19 1017.9 1017.9 0.0
23/11:30am 19.8 14.4 6.5 42 6.7 SSW 24 35 13 19 1017.7 1017.7 0.0
23/11:00am 19.0 14.2 5.8 42 6.5 SW 20 30 11 16 1017.7 1017.7 0.0
23/10:30am 18.6 13.1 5.8 43 6.3 SW 24 32 13 17 1017.7 1017.7 0.0
23/10:00am 18.4 14.0 7.2 48 5.6 SSW 20 30 11 16 1017.5 1017.5 0.0
23/09:30am 18.1 12.8 6.6 47 5.7 SW 24 35 13 19 1017.4 1017.4 0.0
23/09:00am 18.3 12.9 6.2 45 6.0 SSW 24 32 13 17 1017.3 1017.3 0.4
23/08:30am 17.9 11.8 6.7 48 5.6 SSW 28 43 15 23 1017.4 1017.4 0.4
23/08:00am 17.3 13.3 9.0 58 4.3 SSW 20 28 11 15 1017.1 1017.1 0.4
23/07:30am 16.5 12.7 9.2 62 3.8 SSW 19 28 10 15 1016.9 1016.9 0.4
23/07:00am 15.6 12.7 11.0 74 2.4 SSW 17 24 9 13 1016.4 1016.4 0.4
23/06:30am 14.3 12.7 11.5 83 1.5 SSW 11 13 6 7 1016.2 1016.2 0.4
23/06:00am 13.8 11.3 11.1 84 1.4 SW 15 20 8 11 1015.8 1015.8 0.4
23/05:30am 13.2 11.5 11.1 87 1.1 W 11 15 6 8 1015.2 1015.2 0.4
23/05:00am 12.1 10.5 10.3 89 0.9 WSW 9 11 5 6 1015.0 1015.0 0.4
23/04:30am 10.5 8.8 8.4 87 1.0 S 7 9 4 5 1014.4 1014.4 0.4
23/04:00am 10.7 10.0 8.5 86 1.1 WSW 2 7 1 4 1014.2 1014.2 0.4
23/03:30am 12.0 11.9 9.6 85 1.2 CALM 0 0 0 0 1013.9 1013.9 0.4
23/03:00am 12.9 13.0 10.1 83 1.4 CALM 0 0 0 0 1014.0 1014.0 0.4
23/02:30am 13.4 13.5 10.0 80 1.8 CALM 0 0 0 0 1014.0 1014.0 0.4
23/02:00am 13.3 12.9 9.7 79 1.8 SW 2 6 1 3 1014.0 1014.0 0.4
23/01:30am 14.1 14.1 9.7 75 2.3 CALM 0 0 0 0 1014.2 1014.2 0.4
23/01:00am 14.5 14.6 10.1 75 2.3 CALM 0 0 0 0 1014.3 1014.3 0.4
23/12:30am 14.8 13.7 10.0 73 2.5 W 6 9 3 5 1014.4 1014.4 0.4
23/12:00am 14.8 13.5 10.0 73 2.5 WSW 7 11 4 6 1014.7 1014.7 0.4
 
Date/Time
WST
Temp
°C
App
Temp
°C
Dew
Point
Rel
Hum
%
Delta-T
°C
Wind Press
QNH
hPa
Press
MSL
hPa
Rain
since 9 am
mm
Dir
 
Spd
km/h
Gust
km/h
Spd
kts
Gust
kts
22/11:30pm 15.1 13.8 9.9 71 2.7 WSW 7 9 4 5 1014.8 1014.8 0.4
22/11:00pm 15.3 13.5 9.4 68 3.0 WSW 9 15 5 8 1015.0 1015.0 0.4
22/10:30pm 15.9 13.3 9.3 65 3.4 W 13 19 7 10 1015.1 1015.1 0.4
22/10:00pm 15.7 14.3 9.6 67 3.2 SW 7 13 4 7 1015.1 1015.1 0.4
22/09:30pm 15.8 14.1 9.7 67 3.2 WNW 9 11 5 6 1015.3 1015.3 0.4
22/09:00pm 15.9 14.0 9.1 64 3.5 W 9 11 5 6 1015.2 1015.2 0.4
22/08:30pm 16.3 14.2 8.3 59 4.1 W 9 19 5 10 1015.1 1015.1 0.4
22/08:00pm 16.4 14.3 8.1 58 4.2 WSW 9 13 5 7 1015.0 1015.0 0.4
22/07:30pm 16.4 13.6 8.6 60 4.0 W 13 19 7 10 1014.8 1014.8 0.4
22/07:00pm 16.7 13.6 8.7 59 4.1 W 15 22 8 12 1014.5 1014.5 0.4
22/06:30pm 16.9 12.9 8.3 57 4.4 W 19 26 10 14 1014.3 1014.3 0.4
22/06:00pm 18.2 14.2 8.2 52 5.1 WSW 19 26 10 14 1014.2 1014.2 0.4
22/05:30pm 18.0 13.9 8.6 54 4.9 WSW 20 30 11 16 1014.2 1014.2 0.4
22/05:00pm 18.4 14.1 7.8 50 5.4 W 20 30 11 16 1013.8 1013.8 0.4
22/04:30pm 19.3 15.0 8.0 48 5.8 W 20 35 11 19 1013.6 1013.6 0.4
22/04:00pm 19.8 15.6 8.2 47 6.0 W 20 30 11 16 1013.5 1013.5 0.4
22/03:30pm 19.8 15.3 8.5 48 5.9 W 22 32 12 17 1013.5 1013.5 0.4
22/03:00pm 20.7 16.6 8.7 46 6.3 W 20 32 11 17 1013.5 1013.5 0.4
22/02:30pm 20.7 16.8 8.7 46 6.3 W 19 28 10 15 1013.5 1013.5 0.4
22/02:00pm 20.5 16.1 8.8 47 6.2 W 22 30 12 16 1013.5 1013.5 0.4
22/01:30pm 20.5 16.6 9.4 49 5.9 W 20 33 11 18 1013.4 1013.4 0.4
22/01:00pm 21.3 17.4 9.5 47 6.3 WSW 20 30 11 16 1013.4 1013.4 0.4
22/12:30pm 20.9 16.6 9.5 48 6.1 WSW 22 33 12 18 1013.5 1013.5 0.4
22/12:00pm 20.3 16.6 10.1 52 5.5 WSW 20 28 11 15 1013.4 1013.4 0.4
22/11:30am 19.1 15.4 10.1 56 4.8 WSW 20 26 11 14 1013.5 1013.5 0.4
22/11:00am 17.7 16.0 12.4 71 2.9 WNW 13 19 7 10 1013.5 1013.5 0.4
22/10:30am 19.0 17.1 11.8 63 4.0 W 13 19 7 10 1013.4 1013.4 0.2
22/10:00am 17.9 15.3 11.9 68 3.3 SW 17 20 9 11 1013.7 1013.7 0.2
22/09:30am 15.1 11.9 13.0 87 1.2 SW 22 28 12 15 1013.9 1013.9 0.2
22/09:00am 17.1 15.1 11.4 69 3.1 WSW 13 24 7 13 1013.8 1013.8 0.6
22/08:30am 16.0 15.0 12.2 78 2.1 WNW 9 17 5 9 1013.9 1013.9 0.6
22/08:00am 15.1 13.6 13.0 87 1.2 SW 13 22 7 12 1014.0 1014.0 0.6
22/07:30am 15.9 14.7 11.5 75 2.4 SSW 9 15 5 8 1013.7 1013.7 0.4
22/07:00am 14.9 15.8 12.8 87 1.2 CALM 0 0 0 0 1013.3 1013.3 0.4
22/06:30am 14.2 15.1 12.8 91 0.8 CALM 0 0 0 0 1013.0 1013.0 0.4
22/06:00am 13.7 13.5 12.9 95 0.4 ENE 6 7 3 4 1012.9 1012.9 0.4
22/05:30am 13.4 13.1 12.6 95 0.4 NE 6 7 3 4 1012.6 1012.6 0.4
22/05:00am 13.5 14.3 12.4 93 0.6 CALM 0 7 0 4 1012.2 1012.2 0.4
22/04:30am 13.5 14.3 12.4 93 0.6 CALM 0 6 0 3 1012.1 1012.1 0.4
22/04:00am 13.5 13.1 12.4 93 0.6 SW 6 7 3 4 1012.0 1012.0 0.4
22/03:30am 13.5 13.0 12.2 92 0.7 W 6 9 3 5 1011.9 1011.9 0.4
22/03:00am 13.3 14.1 12.4 94 0.5 CALM 0 7 0 4 1011.9 1011.9 0.2
22/02:30am 13.4 14.1 12.1 92 0.7 CALM 0 2 0 1 1011.7 1011.7 0.2
22/02:00am 13.5 11.7 12.1 91 0.8 WSW 13 22 7 12 1012.1 1012.1 0.2
22/01:30am 13.7 14.4 12.1 90 0.9 CALM 0 6 0 3 1011.9 1011.9 0.2
22/01:00am 14.0 14.6 12.0 88 1.1 CALM 0 0 0 0 1011.9 1011.9 0.2
22/12:30am 14.2 14.7 11.7 85 1.3 CALM 0 7 0 4 1012.0 1012.0 0.2
22/12:00am 13.8 14.4 12.0 89 1.0 CALM 0 6 0 3 1012.2 1012.2 0.2
 
Date/Time
WST
Temp
°C
App
Temp
°C
Dew
Point
Rel
Hum
%
Delta-T
°C
Wind Press
QNH
hPa
Press
MSL
hPa
Rain
since 9 am
mm
Dir
 
Spd
km/h
Gust
km/h
Spd
kts
Gust
kts
21/11:30pm 14.1 14.3 12.0 87 1.1 S 2 7 1 4 1012.3 1012.3 0.2
21/11:00pm 14.4 13.7 11.9 85 1.3 WSW 7 9 4 5 1012.4 1012.4 0.2
21/10:30pm 13.9 14.7 12.5 91 0.8 CALM 0 7 0 4 1012.6 1012.6 0.2
21/10:00pm 13.9 14.2 12.1 89 1.0 SSE 2 7 1 4 1012.6 1012.6 0.2
21/09:30pm 14.0 12.4 11.7 86 1.2 SSW 11 15 6 8 1012.8 1012.8 0.2
21/09:00pm 14.4 13.7 11.9 85 1.3 SW 7 11 4 6 1012.6 1012.6 0.2
21/08:30pm 14.5 13.7 11.8 84 1.5 SW 7 9 4 5 1012.4 1012.4 0.2
21/08:00pm 15.3 14.5 12.8 85 1.4 SW 9 13 5 7 1012.2 1012.2 0.2
21/07:30pm 15.1 13.9 12.8 86 1.3 WSW 11 15 6 8 1012.1 1012.1 0.2
21/07:00pm 16.6 14.4 12.0 74 2.5 WSW 15 19 8 10 1011.8 1011.8 0.0
21/06:30pm 17.6 15.0 10.7 64 3.7 WSW 15 22 8 12 1011.5 1011.5 0.0
21/06:00pm 17.8 14.8 10.7 63 3.8 WSW 17 24 9 13 1011.2 1011.2 0.0
21/05:30pm 18.2 13.9 10.8 62 4.0 SW 24 30 13 16 1011.0 1011.0 0.0
21/05:00pm 18.6 15.1 10.2 58 4.5 WSW 19 26 10 14 1010.9 1010.9 0.0
21/04:30pm 19.4 15.8 9.9 54 5.1 W 19 28 10 15 1011.0 1011.0 0.0
21/04:00pm 18.7 15.2 10.8 60 4.3 W 20 28 11 15 1011.2 1011.2 0.0
21/03:30pm 20.2 16.2 9.2 49 5.8 W 20 32 11 17 1010.9 1010.9 0.0
21/03:00pm 19.8 15.5 9.4 51 5.5 WSW 22 32 12 17 1010.9 1010.9 0.0
21/02:30pm 20.0 16.2 9.9 52 5.4 W 20 30 11 16 1011.0 1011.0 0.0
21/02:00pm 19.9 15.3 8.3 47 6.0 W 22 35 12 19 1010.9 1010.9 0.0
21/01:30pm 19.5 15.0 10.2 55 5.0 WSW 24 33 13 18 1011.2 1011.2 0.0

Other Formats:

Comma delimited format used in spreadsheet applications
http://www.bom.gov.au/fwo/IDW60801/IDW60801.95611.axf

JavaScript Object Notation format (JSON) in row-major order
http://www.bom.gov.au/fwo/IDW60801/IDW60801.95611.json